createdAt,value
2022-12-08T00:07:16.127Z,100
2022-12-08T00:17:16.155Z,100
2022-12-08T00:27:16.192Z,100
2022-12-08T00:37:16.170Z,100
2022-12-08T00:47:18.708Z,100
2022-12-08T00:57:16.187Z,100
2022-12-08T01:07:16.173Z,100
2022-12-08T01:17:16.211Z,100
2022-12-08T01:27:16.180Z,100
2022-12-08T01:37:16.199Z,100
2022-12-08T01:47:16.175Z,100
2022-12-08T01:57:16.211Z,100
2022-12-08T02:07:16.197Z,100
2022-12-08T02:17:16.211Z,100
2022-12-08T02:27:16.205Z,100
2022-12-08T02:37:16.239Z,100
2022-12-08T02:47:16.219Z,100
2022-12-08T02:57:16.250Z,100
2022-12-08T03:07:16.232Z,100
2022-12-08T03:17:16.287Z,100
2022-12-08T03:27:16.232Z,100
2022-12-08T03:37:16.236Z,100
2022-12-08T03:47:16.261Z,100
2022-12-08T03:57:16.294Z,100
2022-12-08T04:07:16.288Z,100
2022-12-08T04:17:16.282Z,100
2022-12-08T04:27:16.265Z,100
2022-12-08T04:37:16.285Z,100
2022-12-08T04:47:16.305Z,100
2022-12-08T04:57:16.313Z,100
2022-12-08T05:07:16.285Z,100
2022-12-08T05:17:16.347Z,100
2022-12-08T05:27:16.303Z,100
2022-12-08T05:37:16.340Z,100
2022-12-08T05:47:16.317Z,100
2022-12-08T05:57:16.342Z,100
2022-12-08T06:07:16.419Z,100
2022-12-08T06:17:16.348Z,100
2022-12-08T06:27:16.335Z,100
2022-12-08T06:37:16.373Z,100
2022-12-08T06:47:16.320Z,100
2022-12-08T06:57:16.374Z,100
2022-12-08T07:07:16.343Z,100
2022-12-08T07:17:16.460Z,100
2022-12-08T07:27:16.356Z,100
2022-12-08T07:37:16.371Z,100
2022-12-08T07:47:16.374Z,100
2022-12-08T07:57:16.407Z,100
2022-12-08T08:07:16.388Z,100
2022-12-08T08:17:16.519Z,100
2022-12-08T08:27:16.376Z,100
2022-12-08T08:37:16.470Z,100
2022-12-08T08:47:16.394Z,100
2022-12-08T08:57:18.438Z,100
2022-12-08T09:07:16.417Z,100
2022-12-08T09:17:16.450Z,100
2022-12-08T09:27:16.406Z,100
2022-12-08T09:37:16.447Z,100
2022-12-08T09:47:16.416Z,100
2022-12-08T09:57:16.457Z,100
2022-12-08T10:07:16.429Z,99
2022-12-08T10:17:16.446Z,85
2022-12-08T10:27:16.420Z,80
2022-12-08T10:37:16.446Z,77
2022-12-08T10:47:16.410Z,78
2022-12-08T10:57:16.444Z,83
2022-12-08T11:07:16.415Z,81
2022-12-08T11:17:16.457Z,89
2022-12-08T11:27:16.457Z,96
2022-12-08T11:37:16.529Z,100
2022-12-08T11:47:16.498Z,99
2022-12-08T11:57:16.493Z,95
2022-12-08T12:07:18.541Z,95
2022-12-08T12:17:16.591Z,96
2022-12-08T12:27:16.536Z,99
2022-12-08T12:37:16.518Z,99
2022-12-08T12:47:16.454Z,98
2022-12-08T12:57:16.474Z,98
2022-12-08T13:07:16.459Z,99
2022-12-08T13:17:16.588Z,100
2022-12-08T13:27:16.471Z,98
2022-12-08T13:37:16.547Z,97
2022-12-08T13:47:33.166Z,100
2022-12-08T13:57:16.682Z,100
2022-12-08T14:07:16.483Z,100
2022-12-08T14:17:16.523Z,100
2022-12-08T14:27:16.486Z,100
2022-12-08T14:37:16.514Z,100
2022-12-08T14:47:16.515Z,100
2022-12-08T14:57:16.523Z,100
2022-12-08T15:07:16.520Z,100
2022-12-08T15:17:16.535Z,100
2022-12-08T15:27:16.529Z,100
2022-12-08T15:37:16.564Z,100
2022-12-08T15:47:16.516Z,100
2022-12-08T15:57:29.936Z,100
2022-12-08T16:07:21.612Z,100
2022-12-08T16:17:16.584Z,100
2022-12-08T16:27:59.093Z,100
2022-12-08T16:37:16.578Z,100
2022-12-08T16:47:16.575Z,100
2022-12-08T16:57:16.611Z,100
2022-12-08T17:07:16.592Z,100
2022-12-08T17:17:16.632Z,100
2022-12-08T17:27:16.623Z,100
2022-12-08T17:37:16.662Z,100
2022-12-08T17:47:16.627Z,100
2022-12-08T17:57:16.662Z,100
2022-12-08T18:07:16.638Z,100
2022-12-08T18:17:16.722Z,100
2022-12-08T18:27:16.652Z,100
2022-12-08T18:37:16.674Z,100
2022-12-08T18:47:16.671Z,100
2022-12-08T18:57:16.726Z,100
2022-12-08T19:07:16.701Z,100
2022-12-08T19:17:16.690Z,100
2022-12-08T19:27:16.695Z,100
2022-12-08T19:37:16.777Z,100
2022-12-08T19:47:16.732Z,100
2022-12-08T19:57:16.757Z,100
2022-12-08T20:07:16.740Z,100
2022-12-08T20:17:16.780Z,100
2022-12-08T20:27:16.794Z,100
2022-12-08T20:37:16.781Z,100
2022-12-08T20:47:16.826Z,100
2022-12-08T20:57:16.850Z,100
2022-12-08T21:07:16.947Z,100
2022-12-08T21:17:16.987Z,100
2022-12-08T21:27:16.812Z,100
2022-12-08T21:37:16.835Z,100
2022-12-08T21:47:16.857Z,100
2022-12-08T21:57:17.018Z,100
2022-12-08T22:07:17.040Z,100
2022-12-08T22:17:17.221Z,100
2022-12-08T22:27:16.928Z,100
2022-12-08T22:37:16.912Z,100
2022-12-08T22:47:16.889Z,100
2022-12-08T22:57:16.967Z,100
2022-12-08T23:07:16.935Z,100
2022-12-08T23:17:17.102Z,100
2022-12-08T23:27:16.946Z,100
2022-12-08T23:37:16.992Z,100
2022-12-08T23:47:17.181Z,100
2022-12-08T23:57:17.119Z,100
